createdAt,value
2023-05-14T00:00:29.870Z,4.37
2023-05-14T00:01:56.974Z,4.35
2023-05-14T00:03:05.486Z,4.67
2023-05-14T00:04:13.786Z,4.58
2023-05-14T00:05:22.036Z,4.58
2023-05-14T00:06:29.567Z,4.59
2023-05-14T00:07:36.967Z,4.55
2023-05-14T00:08:44.896Z,4.42
2023-05-14T00:09:51.515Z,4.38
2023-05-14T00:10:57.931Z,4.56
2023-05-14T00:12:04.804Z,4.41
2023-05-14T00:13:12.472Z,4.43
2023-05-14T00:14:19.275Z,4.25
2023-05-14T00:15:29.178Z,4.38
2023-05-14T00:16:36.010Z,4.40
2023-05-14T00:17:44.680Z,4.28
2023-05-14T00:18:53.062Z,4.36
2023-05-14T00:20:01.448Z,4.41
2023-05-14T00:21:08.640Z,4.38
2023-05-14T00:22:16.255Z,4.53
2023-05-14T00:23:26.630Z,4.41
2023-05-14T00:24:33.761Z,4.34
2023-05-14T00:25:41.507Z,4.33
2023-05-14T00:26:48.709Z,4.51
2023-05-14T00:27:56.223Z,4.62
2023-05-14T00:29:04.416Z,4.54
2023-05-14T00:30:13.181Z,4.50
2023-05-14T00:31:21.676Z,4.49
2023-05-14T00:32:28.852Z,4.34
2023-05-14T00:33:37.021Z,4.38
2023-05-14T00:34:45.361Z,4.48
2023-05-14T00:35:53.648Z,4.32
2023-05-14T00:37:01.305Z,4.34
2023-05-14T00:38:08.788Z,4.33
2023-05-14T00:39:16.551Z,4.32
2023-05-14T00:40:28.536Z,4.36
2023-05-14T00:41:55.305Z,4.36
2023-05-14T00:43:05.690Z,4.40
2023-05-14T00:44:13.182Z,4.29
2023-05-14T00:45:20.286Z,4.39
2023-05-14T00:46:29.210Z,4.38
2023-05-14T00:47:40.527Z,4.16
2023-05-14T00:48:47.573Z,4.08
2023-05-14T00:49:55.343Z,4.33
2023-05-14T00:51:03.792Z,4.22
2023-05-14T00:52:11.519Z,4.39
2023-05-14T00:53:31.353Z,4.19
2023-05-14T00:54:39.132Z,4.40
2023-05-14T00:55:47.936Z,4.37
2023-05-14T00:56:56.203Z,4.34
2023-05-14T00:58:03.419Z,4.31
2023-05-14T00:59:11.083Z,4.28
2023-05-14T01:00:19.257Z,4.28
2023-05-14T01:01:29.770Z,4.34
2023-05-14T01:02:36.896Z,4.32
2023-05-14T01:03:44.468Z,4.33
2023-05-14T01:04:53.010Z,4.25
2023-05-14T01:06:21.667Z,4.29
2023-05-14T01:07:40.147Z,4.18
2023-05-14T01:09:04.952Z,4.22
2023-05-14T01:10:16.704Z,4.23
2023-05-14T01:12:01.979Z,4.47
2023-05-14T01:13:35.638Z,4.40
2023-05-14T01:15:14.594Z,4.42
2023-05-14T01:16:22.549Z,4.41
2023-05-14T01:17:32.305Z,4.19
2023-05-14T01:18:39.587Z,4.13
2023-05-14T01:19:46.877Z,4.12
2023-05-14T01:20:55.502Z,4.13
2023-05-14T01:22:03.518Z,4.28
2023-05-14T01:23:11.352Z,4.19
2023-05-14T01:24:19.489Z,4.21
2023-05-14T01:25:28.644Z,4.34
2023-05-14T01:26:36.077Z,4.27
2023-05-14T01:28:05.041Z,4.03
2023-05-14T01:29:24.370Z,4.11
2023-05-14T01:30:39.699Z,4.00
2023-05-14T01:31:47.829Z,4.07
2023-05-14T01:32:56.625Z,4.14
2023-05-14T01:34:05.697Z,4.10
2023-05-14T01:35:12.759Z,4.15
2023-05-14T01:36:20.075Z,4.20
2023-05-14T01:37:29.240Z,4.31
2023-05-14T01:38:37.352Z,4.26
2023-05-14T01:39:44.523Z,4.25
2023-05-14T01:40:52.913Z,4.17
2023-05-14T01:42:01.250Z,4.14
2023-05-14T01:43:08.840Z,4.03
2023-05-14T01:44:15.697Z,4.29
2023-05-14T01:45:23.032Z,4.38
2023-05-14T01:46:34.345Z,4.09
2023-05-14T01:47:42.099Z,4.15
2023-05-14T01:48:49.194Z,4.19
2023-05-14T01:49:57.758Z,4.20
2023-05-14T01:51:06.454Z,4.17
2023-05-14T01:52:14.716Z,4.24
2023-05-14T01:53:22.822Z,4.26
2023-05-14T01:54:30.312Z,4.20
2023-05-14T01:55:38.159Z,4.29
2023-05-14T01:56:46.327Z,4.24
2023-05-14T01:57:54.284Z,4.24
2023-05-14T01:59:01.867Z,4.19
2023-05-14T02:00:11.217Z,4.21
2023-05-14T02:01:21.627Z,4.21
2023-05-14T02:02:29.797Z,4.10
2023-05-14T02:03:37.978Z,4.13
2023-05-14T02:04:45.502Z,4.27
2023-05-14T02:05:53.327Z,4.07
2023-05-14T02:07:00.347Z,4.18
2023-05-14T02:08:08.658Z,4.15
2023-05-14T02:09:15.950Z,4.04
2023-05-14T02:10:23.459Z,4.01
2023-05-14T02:11:30.770Z,4.19
2023-05-14T02:12:37.908Z,4.16
2023-05-14T02:13:44.816Z,4.05
2023-05-14T02:14:52.609Z,4.03
2023-05-14T02:16:00.546Z,3.88
2023-05-14T02:17:08.046Z,4.01
2023-05-14T02:18:15.641Z,4.04
2023-05-14T02:19:23.947Z,3.94
2023-05-14T02:20:31.160Z,4.12
2023-05-14T02:21:38.044Z,4.16
2023-05-14T02:22:48.106Z,4.16
2023-05-14T02:23:56.024Z,4.01
2023-05-14T02:25:04.106Z,4.10
2023-05-14T02:26:12.580Z,4.22
2023-05-14T02:27:19.912Z,4.05
2023-05-14T02:28:28.429Z,4.02
2023-05-14T02:29:35.153Z,3.89
2023-05-14T02:30:42.040Z,3.83
2023-05-14T02:31:49.020Z,4.07
2023-05-14T02:32:56.920Z,3.99
2023-05-14T02:34:05.219Z,3.94
2023-05-14T02:35:13.062Z,3.84
2023-05-14T02:36:21.114Z,4.08
2023-05-14T02:37:28.659Z,3.87
2023-05-14T02:38:35.938Z,3.89
2023-05-14T02:39:43.194Z,4.01
2023-05-14T02:40:51.535Z,4.06
2023-05-14T02:42:00.002Z,4.06
2023-05-14T02:43:07.566Z,4.01
2023-05-14T02:44:15.939Z,3.82
2023-05-14T02:45:23.193Z,3.75
2023-05-14T02:46:30.009Z,3.71
2023-05-14T02:47:49.141Z,3.76
2023-05-14T02:48:56.635Z,3.94
2023-05-14T02:50:07.212Z,3.74
2023-05-14T02:51:14.874Z,3.93
2023-05-14T02:52:22.233Z,3.89
2023-05-14T02:53:30.573Z,3.81
2023-05-14T02:54:37.405Z,3.68
2023-05-14T02:55:44.969Z,3.66
2023-05-14T02:56:53.119Z,3.67
2023-05-14T02:58:01.607Z,3.93
2023-05-14T02:59:09.782Z,4.06
2023-05-14T03:00:18.553Z,3.96
2023-05-14T03:01:28.001Z,3.95
2023-05-14T03:02:36.885Z,3.87
2023-05-14T03:03:44.620Z,3.69
2023-05-14T03:04:51.927Z,3.69
2023-05-14T03:05:58.982Z,3.82
2023-05-14T03:07:06.575Z,3.86
2023-05-14T03:08:13.702Z,3.85
2023-05-14T03:09:20.274Z,3.90
2023-05-14T03:10:27.945Z,3.69
2023-05-14T03:11:34.820Z,3.80
2023-05-14T03:12:41.896Z,3.90
2023-05-14T03:13:51.600Z,3.87
2023-05-14T03:14:59.154Z,3.86
2023-05-14T03:16:07.398Z,3.82
2023-05-14T03:17:15.762Z,3.75
2023-05-14T03:18:22.974Z,3.85
2023-05-14T03:19:30.597Z,3.66
2023-05-14T03:20:37.781Z,3.84
2023-05-14T03:21:45.905Z,3.94
2023-05-14T03:22:54.377Z,3.92
2023-05-14T03:24:01.570Z,3.89
2023-05-14T03:25:10.346Z,3.98
2023-05-14T03:26:18.834Z,3.82
2023-05-14T03:27:26.280Z,3.97
2023-05-14T03:28:33.585Z,3.89
2023-05-14T03:29:40.821Z,3.94
2023-05-14T03:30:48.449Z,4.02
2023-05-14T03:31:57.100Z,3.83
2023-05-14T03:33:05.575Z,3.89
2023-05-14T03:34:13.697Z,3.98
2023-05-14T03:35:22.959Z,3.84
2023-05-14T03:36:29.979Z,3.81
2023-05-14T03:37:37.861Z,3.84
2023-05-14T03:38:45.462Z,3.78
2023-05-14T03:39:53.211Z,3.93
2023-05-14T03:41:00.158Z,3.83
2023-05-14T03:42:07.613Z,3.79
2023-05-14T03:43:15.239Z,3.86
2023-05-14T03:44:22.346Z,3.77
2023-05-14T03:45:31.929Z,3.75
2023-05-14T03:46:39.387Z,3.74
2023-05-14T03:47:47.232Z,3.77
2023-05-14T03:48:55.033Z,3.79
2023-05-14T03:50:03.783Z,3.73
2023-05-14T03:51:11.778Z,3.93
2023-05-14T03:52:19.788Z,3.81
2023-05-14T03:53:28.722Z,3.70
2023-05-14T03:54:36.042Z,3.77
2023-05-14T03:55:44.012Z,3.86
2023-05-14T03:56:51.469Z,3.72
2023-05-14T03:57:59.285Z,3.71
2023-05-14T03:59:07.761Z,3.97
2023-05-14T04:00:15.520Z,3.67
2023-05-14T04:01:25.802Z,3.80
2023-05-14T04:02:32.994Z,3.71
2023-05-14T04:03:42.046Z,3.64
2023-05-14T04:04:50.038Z,3.75
2023-05-14T04:06:00.086Z,3.60
2023-05-14T04:07:08.055Z,3.52
2023-05-14T04:08:16.745Z,3.47
2023-05-14T04:09:25.229Z,3.34
2023-05-14T04:10:33.780Z,3.47
2023-05-14T04:11:41.542Z,3.29
2023-05-14T04:12:48.667Z,3.19
2023-05-14T04:13:56.589Z,3.22
2023-05-14T04:15:04.469Z,3.07
2023-05-14T04:16:12.694Z,2.92
2023-05-14T04:17:19.742Z,3.18
2023-05-14T04:18:28.495Z,2.67
2023-05-14T04:19:36.050Z,2.64
2023-05-14T04:20:44.037Z,2.76
2023-05-14T04:21:50.857Z,2.91
2023-05-14T04:22:59.368Z,2.80
2023-05-14T04:24:08.757Z,2.75
2023-05-14T04:25:16.932Z,2.83
2023-05-14T04:26:24.697Z,2.54
2023-05-14T04:27:31.891Z,2.46
2023-05-14T04:28:38.766Z,2.57
2023-05-14T04:29:45.733Z,2.49
2023-05-14T04:30:53.577Z,2.21
2023-05-14T04:32:01.510Z,2.17
2023-05-14T04:33:09.534Z,2.33
2023-05-14T04:34:18.298Z,2.19
2023-05-14T04:35:27.077Z,1.99
2023-05-14T04:36:34.283Z,2.02
2023-05-14T04:37:42.127Z,2.00
2023-05-14T04:38:48.611Z,2.22
2023-05-14T04:39:56.655Z,2.10
2023-05-14T04:41:05.014Z,1.94
2023-05-14T04:42:12.852Z,1.90
2023-05-14T04:43:20.042Z,2.08
2023-05-14T04:44:27.468Z,1.85
2023-05-14T04:45:34.923Z,1.84
2023-05-14T04:46:43.080Z,1.90
2023-05-14T04:47:50.111Z,1.74
2023-05-14T04:49:00.683Z,1.70
2023-05-14T04:50:08.662Z,1.78
2023-05-14T04:51:16.857Z,1.58
2023-05-14T04:52:24.067Z,1.71
2023-05-14T04:53:31.241Z,1.65
2023-05-14T04:54:38.423Z,1.62
2023-05-14T04:55:45.942Z,1.53
2023-05-14T04:56:53.487Z,1.53
2023-05-14T04:58:01.333Z,1.58
2023-05-14T04:59:09.464Z,1.64
2023-05-14T05:00:19.321Z,1.55
2023-05-14T05:01:27.699Z,1.34
2023-05-14T05:02:36.088Z,1.36
2023-05-14T05:03:43.911Z,1.34
2023-05-14T05:04:51.870Z,1.39
2023-05-14T05:05:59.727Z,1.24
2023-05-14T05:07:08.533Z,1.31
2023-05-14T05:08:16.345Z,1.34
2023-05-14T05:09:23.898Z,1.34
2023-05-14T05:10:30.955Z,1.22
2023-05-14T05:11:39.460Z,1.29
2023-05-14T05:12:46.876Z,1.14
2023-05-14T05:13:54.515Z,1.43
2023-05-14T05:15:01.802Z,1.27
2023-05-14T05:16:09.942Z,1.17
2023-05-14T05:17:17.336Z,1.19
2023-05-14T05:18:25.220Z,1.07
2023-05-14T05:19:42.435Z,0.91
2023-05-14T05:20:51.010Z,0.83
2023-05-14T05:21:57.507Z,1.08
2023-05-14T05:23:07.594Z,1.09
2023-05-14T05:24:15.599Z,1.11
2023-05-14T05:25:23.198Z,1.01
2023-05-14T05:26:30.283Z,1.01
2023-05-14T05:27:38.224Z,0.82
2023-05-14T05:28:46.368Z,0.82
2023-05-14T05:29:55.191Z,0.92
2023-05-14T05:31:02.824Z,0.76
2023-05-14T05:32:10.731Z,0.72
2023-05-14T05:33:18.454Z,0.63
2023-05-14T05:34:25.939Z,0.95
2023-05-14T05:35:33.128Z,0.78
2023-05-14T05:36:40.315Z,0.55
2023-05-14T05:37:47.866Z,0.61
2023-05-14T05:38:54.389Z,0.70
2023-05-14T05:40:02.707Z,0.66
2023-05-14T05:41:10.060Z,0.62
2023-05-14T05:42:17.886Z,0.63
2023-05-14T05:43:25.849Z,0.61
2023-05-14T05:44:34.247Z,0.48
2023-05-14T05:45:42.810Z,0.59
2023-05-14T05:46:51.114Z,0.63
2023-05-14T05:47:58.876Z,0.71
2023-05-14T05:49:05.738Z,0.80
2023-05-14T05:50:13.883Z,0.68
2023-05-14T05:51:20.734Z,0.59
2023-05-14T05:52:28.517Z,0.58
2023-05-14T05:53:35.986Z,0.55
2023-05-14T05:54:43.686Z,0.67
2023-05-14T05:55:52.903Z,0.43
2023-05-14T05:57:01.862Z,0.41
2023-05-14T05:58:10.643Z,0.39
2023-05-14T05:59:18.390Z,0.36
2023-05-14T06:00:25.844Z,0.33
2023-05-14T06:01:33.407Z,0.47
2023-05-14T06:02:41.503Z,0.47
2023-05-14T06:03:49.917Z,0.41
2023-05-14T06:04:57.154Z,0.31
2023-05-14T06:06:05.241Z,0.39
2023-05-14T06:07:13.108Z,0.32
2023-05-14T06:08:20.967Z,0.57
2023-05-14T06:09:27.935Z,0.52
2023-05-14T06:10:36.198Z,0.26
2023-05-14T06:11:42.853Z,0.38
2023-05-14T06:12:49.441Z,0.14
2023-05-14T06:13:56.110Z,0.32
2023-05-14T06:15:02.864Z,0.32
2023-05-14T06:16:10.335Z,0.11
2023-05-14T06:17:18.449Z,0.16
2023-05-14T06:18:25.125Z,0.46
2023-05-14T06:19:50.933Z,0.35
2023-05-14T06:20:59.288Z,0.22
2023-05-14T06:22:07.238Z,0.33
2023-05-14T06:23:14.104Z,0.30
2023-05-14T06:24:22.786Z,0.16
2023-05-14T06:25:30.499Z,0.31
2023-05-14T06:26:37.749Z,0.42
2023-05-14T06:27:45.471Z,0.27
2023-05-14T06:28:52.385Z,0.19
2023-05-14T06:30:00.860Z,0.27
2023-05-14T06:31:08.557Z,0.34
2023-05-14T06:32:17.285Z,0.31
2023-05-14T06:33:31.693Z,0.11
2023-05-14T06:34:39.280Z,0.22
2023-05-14T06:35:47.204Z,0.23
2023-05-14T06:36:54.329Z,0.07
2023-05-14T06:38:01.888Z,0.24
2023-05-14T06:39:09.358Z,0.28
2023-05-14T06:40:18.103Z,0.08
2023-05-14T06:41:25.470Z,0.08
2023-05-14T06:42:32.325Z,0.14
2023-05-14T06:43:39.152Z,0.19
2023-05-14T06:44:46.475Z,0.16
2023-05-14T06:45:53.696Z,0.18
2023-05-14T06:47:01.135Z,0.16
2023-05-14T06:48:09.504Z,0.25
2023-05-14T06:49:17.565Z,0.29
2023-05-14T06:50:25.270Z,0.11
2023-05-14T06:51:32.721Z,0.15
2023-05-14T06:52:40.378Z,0.17
2023-05-14T06:53:49.329Z,0.10
2023-05-14T06:54:56.704Z,0.18
2023-05-14T06:56:04.571Z,0.11
2023-05-14T06:57:12.216Z,0.12
2023-05-14T06:58:19.635Z,0.18
2023-05-14T06:59:27.430Z,0.06
2023-05-14T07:00:34.725Z,0.03
2023-05-14T07:01:42.494Z,0.00
2023-05-14T07:02:49.514Z,0.09
2023-05-14T07:03:58.152Z,0.08
2023-05-14T07:05:06.633Z,0.10
2023-05-14T07:06:15.715Z,0.03
2023-05-14T07:07:23.939Z,0.05
2023-05-14T07:08:31.078Z,0.05
2023-05-14T07:09:38.049Z,0.07
2023-05-14T07:10:46.148Z,0.10
2023-05-14T07:11:53.667Z,0.20
2023-05-14T07:13:01.267Z,0.08
2023-05-14T07:14:09.024Z,0.00
2023-05-14T07:15:17.192Z,0.04
2023-05-14T07:16:25.266Z,0.05
2023-05-14T07:17:33.265Z,0.03
2023-05-14T07:18:41.258Z,0.06
2023-05-14T07:19:49.033Z,0.03
2023-05-14T07:20:55.955Z,0.00
2023-05-14T07:22:03.748Z,0.08
2023-05-14T07:23:11.280Z,0.06
2023-05-14T07:24:19.411Z,0.08
2023-05-14T07:25:27.275Z,0.10
2023-05-14T07:26:35.192Z,0.12
2023-05-14T07:27:42.967Z,0.07
2023-05-14T07:28:50.303Z,0.00
2023-05-14T07:29:56.900Z,0.00
2023-05-14T07:31:10.668Z,0.00
2023-05-14T07:32:17.625Z,0.00
2023-05-14T07:33:26.006Z,0.07
2023-05-14T07:34:33.362Z,0.00
2023-05-14T07:35:42.207Z,0.03
2023-05-14T07:36:49.055Z,0.01
2023-05-14T07:37:56.342Z,0.02
2023-05-14T07:39:04.762Z,0.05
2023-05-14T07:40:12.414Z,0.01
2023-05-14T07:41:20.579Z,0.06
2023-05-14T07:42:35.962Z,0.03
2023-05-14T07:43:44.950Z,0.00
2023-05-14T07:44:53.400Z,0.00
2023-05-14T07:46:00.962Z,0.05
2023-05-14T07:47:10.457Z,0.02
2023-05-14T07:48:18.303Z,0.02
2023-05-14T07:49:25.755Z,0.01
2023-05-14T07:50:33.799Z,0.05
2023-05-14T07:51:41.583Z,0.03
2023-05-14T07:52:48.774Z,0.00
2023-05-14T07:53:57.439Z,0.00
2023-05-14T07:55:05.893Z,0.00
2023-05-14T07:56:13.121Z,0.00
2023-05-14T07:57:20.544Z,0.02
2023-05-14T07:58:29.733Z,0.05
2023-05-14T07:59:40.213Z,0.00
2023-05-14T08:00:47.008Z,0.00
2023-05-14T08:01:54.297Z,0.01
2023-05-14T08:03:01.960Z,0.02
2023-05-14T08:04:10.879Z,0.00
2023-05-14T08:05:19.584Z,0.06
2023-05-14T08:06:28.927Z,0.03
2023-05-14T08:07:36.595Z,0.03
2023-05-14T08:08:44.438Z,0.00
2023-05-14T08:09:55.084Z,0.03
2023-05-14T08:11:03.078Z,0.03
2023-05-14T08:12:11.099Z,0.06
2023-05-14T08:13:20.111Z,0.06
2023-05-14T08:14:28.376Z,0.02
2023-05-14T08:15:35.528Z,0.00
2023-05-14T08:16:43.123Z,0.00
2023-05-14T08:17:49.969Z,0.00
2023-05-14T08:18:56.989Z,0.08
2023-05-14T08:20:06.035Z,0.02
2023-05-14T08:21:14.072Z,0.00
2023-05-14T08:22:22.007Z,0.00
2023-05-14T08:23:30.033Z,0.00
2023-05-14T08:24:37.253Z,0.01
2023-05-14T08:25:45.499Z,0.00
2023-05-14T08:26:52.974Z,0.00
2023-05-14T08:28:01.528Z,0.00
2023-05-14T08:29:11.193Z,0.00
2023-05-14T08:30:19.886Z,0.00
2023-05-14T08:31:28.104Z,0.00
2023-05-14T08:32:35.887Z,0.00
2023-05-14T08:33:44.365Z,0.00
2023-05-14T08:34:52.122Z,0.00
2023-05-14T08:36:02.209Z,0.00
2023-05-14T08:37:09.030Z,0.00
2023-05-14T08:38:15.701Z,0.00
2023-05-14T08:39:23.107Z,0.00
2023-05-14T08:40:29.740Z,0.00
2023-05-14T08:41:38.924Z,0.00
2023-05-14T08:42:46.879Z,0.00
2023-05-14T08:44:13.826Z,0.00
2023-05-14T08:45:27.868Z,0.00
2023-05-14T08:46:34.556Z,0.00
2023-05-14T08:47:42.125Z,0.00
2023-05-14T08:48:50.352Z,0.00
2023-05-14T08:50:05.976Z,0.00
2023-05-14T08:51:14.147Z,0.00
2023-05-14T08:52:22.311Z,0.00
2023-05-14T08:53:30.176Z,0.00
2023-05-14T08:54:38.048Z,0.00
2023-05-14T08:55:45.667Z,0.00
2023-05-14T08:56:52.725Z,0.00
2023-05-14T08:58:00.157Z,0.00
2023-05-14T08:59:07.537Z,0.00
2023-05-14T09:00:16.565Z,0.00
2023-05-14T09:01:24.915Z,0.00
2023-05-14T09:02:32.883Z,0.00
2023-05-14T09:03:40.097Z,0.00
2023-05-14T09:04:48.869Z,0.00
2023-05-14T09:05:59.306Z,0.00
2023-05-14T09:07:09.289Z,0.00
2023-05-14T09:08:17.173Z,0.00
2023-05-14T09:09:25.322Z,0.00
2023-05-14T09:10:32.384Z,0.00
2023-05-14T09:11:48.209Z,0.00
2023-05-14T09:12:55.698Z,0.00
2023-05-14T09:14:03.421Z,0.00
2023-05-14T09:15:10.463Z,0.00
2023-05-14T09:16:17.982Z,0.00
2023-05-14T09:17:26.597Z,0.00
2023-05-14T09:18:33.762Z,0.00
2023-05-14T09:19:44.844Z,0.00
2023-05-14T09:20:53.662Z,0.00
2023-05-14T09:22:00.874Z,0.00
2023-05-14T09:23:08.390Z,0.00
2023-05-14T09:24:24.877Z,0.00
2023-05-14T09:25:34.792Z,0.00
2023-05-14T09:26:43.143Z,0.00
2023-05-14T09:27:55.373Z,0.00
2023-05-14T09:29:05.949Z,0.00
2023-05-14T09:30:14.824Z,0.00
2023-05-14T09:31:22.734Z,0.00
2023-05-14T09:32:30.946Z,0.00
2023-05-14T09:33:38.686Z,0.00
2023-05-14T09:34:47.238Z,0.00
2023-05-14T09:35:58.467Z,0.00
2023-05-14T09:37:07.518Z,0.00
2023-05-14T09:38:15.809Z,0.00
2023-05-14T09:39:24.849Z,0.00
2023-05-14T09:40:32.592Z,0.00
2023-05-14T09:41:40.045Z,0.00
2023-05-14T09:42:49.933Z,0.00
2023-05-14T09:43:59.166Z,0.00
2023-05-14T09:45:10.563Z,0.00
2023-05-14T09:46:19.021Z,0.00
2023-05-14T09:47:26.081Z,0.00
2023-05-14T09:48:33.276Z,0.00
2023-05-14T09:49:40.449Z,0.00
2023-05-14T09:50:47.477Z,0.00
2023-05-14T09:51:55.020Z,0.00
2023-05-14T09:53:02.131Z,0.00
2023-05-14T09:54:09.509Z,0.00
2023-05-14T09:55:18.215Z,0.00
2023-05-14T09:56:25.499Z,0.00
2023-05-14T09:57:32.932Z,0.00
2023-05-14T09:58:41.076Z,0.00
2023-05-14T09:59:47.868Z,0.00
2023-05-14T10:00:55.312Z,0.00
2023-05-14T10:02:02.278Z,0.00
2023-05-14T10:03:10.969Z,0.00
2023-05-14T10:04:18.836Z,0.00
2023-05-14T10:05:26.256Z,0.00
2023-05-14T10:06:35.625Z,0.00
2023-05-14T10:07:46.821Z,0.00
2023-05-14T10:08:58.418Z,0.00
2023-05-14T10:10:06.104Z,0.00
2023-05-14T10:11:22.415Z,0.00
2023-05-14T10:12:32.556Z,0.00
2023-05-14T10:13:43.857Z,0.00
2023-05-14T10:14:55.636Z,0.00
2023-05-14T10:16:17.352Z,0.00
2023-05-14T10:17:25.295Z,0.00
2023-05-14T10:18:34.769Z,0.00
2023-05-14T10:19:42.577Z,0.00
2023-05-14T10:20:54.015Z,0.00
2023-05-14T10:22:10.566Z,0.00
2023-05-14T10:23:19.088Z,0.00
2023-05-14T10:24:25.711Z,0.00
2023-05-14T10:25:32.664Z,0.00
2023-05-14T10:26:41.375Z,0.00
2023-05-14T10:27:49.457Z,0.00
2023-05-14T10:28:58.050Z,0.00
2023-05-14T10:30:09.736Z,0.00
2023-05-14T10:31:18.982Z,0.00
2023-05-14T10:32:27.546Z,0.00
2023-05-14T10:33:36.291Z,0.00
2023-05-14T10:34:46.329Z,0.00
2023-05-14T10:36:10.825Z,0.00
2023-05-14T10:37:23.842Z,0.00
2023-05-14T10:38:32.346Z,0.00
2023-05-14T10:39:50.116Z,0.00
2023-05-14T10:41:02.960Z,0.00
2023-05-14T10:42:12.842Z,0.00
2023-05-14T10:43:21.376Z,0.00
2023-05-14T10:44:28.799Z,0.00
2023-05-14T10:45:36.585Z,0.00
2023-05-14T10:46:44.167Z,0.00
2023-05-14T10:47:51.984Z,0.00
2023-05-14T10:49:00.159Z,0.00
2023-05-14T10:50:12.973Z,0.00
2023-05-14T10:51:22.380Z,0.00
2023-05-14T10:52:29.830Z,0.00
2023-05-14T10:53:39.008Z,0.00
2023-05-14T10:54:59.220Z,0.00
2023-05-14T10:56:12.779Z,0.00
2023-05-14T10:57:23.762Z,0.00
2023-05-14T10:58:31.255Z,0.00
2023-05-14T10:59:38.449Z,0.00
2023-05-14T11:00:46.053Z,0.00
2023-05-14T11:01:53.622Z,0.00
2023-05-14T11:03:02.039Z,0.00
2023-05-14T11:04:09.356Z,0.00
2023-05-14T11:05:19.064Z,0.00
2023-05-14T11:06:26.149Z,0.00
2023-05-14T11:07:35.518Z,0.00
2023-05-14T11:08:43.448Z,0.00
2023-05-14T11:09:50.686Z,0.00
2023-05-14T11:10:57.582Z,0.00
2023-05-14T11:12:05.509Z,0.00
2023-05-14T11:13:12.581Z,0.00
2023-05-14T11:14:19.830Z,0.00
2023-05-14T11:15:28.068Z,0.00
2023-05-14T11:16:34.605Z,0.00
2023-05-14T11:17:42.709Z,0.00
2023-05-14T11:18:49.849Z,0.00
2023-05-14T11:19:58.295Z,0.00
2023-05-14T11:21:06.463Z,0.00
2023-05-14T11:22:16.233Z,0.00
2023-05-14T11:23:26.475Z,0.00
2023-05-14T11:24:33.181Z,0.00
2023-05-14T11:25:41.524Z,0.00
2023-05-14T11:26:49.672Z,0.00
2023-05-14T11:28:00.420Z,0.00
2023-05-14T11:29:08.243Z,0.00
2023-05-14T11:30:19.937Z,0.00
2023-05-14T11:31:27.535Z,0.00
2023-05-14T11:32:35.292Z,0.00
2023-05-14T11:33:43.749Z,0.00
2023-05-14T11:34:51.781Z,0.00
2023-05-14T11:35:59.428Z,0.00
2023-05-14T11:37:08.842Z,0.00
2023-05-14T11:38:19.594Z,0.00
2023-05-14T11:39:26.873Z,0.00
2023-05-14T11:40:35.024Z,0.00
2023-05-14T11:41:47.868Z,0.00
2023-05-14T11:42:55.414Z,0.00
2023-05-14T11:44:03.392Z,0.00
2023-05-14T11:45:13.770Z,0.00
2023-05-14T11:46:22.001Z,0.00
2023-05-14T11:47:29.679Z,0.00
2023-05-14T11:48:37.534Z,0.00
2023-05-14T11:49:45.955Z,0.00
2023-05-14T11:50:53.794Z,0.00
2023-05-14T11:52:01.653Z,0.00
2023-05-14T11:53:08.924Z,0.00
2023-05-14T11:54:16.278Z,0.00
2023-05-14T11:55:23.491Z,0.00
2023-05-14T11:56:31.396Z,0.00
2023-05-14T11:57:39.333Z,0.00
2023-05-14T11:58:51.236Z,0.00
2023-05-14T11:59:59.736Z,0.00
2023-05-14T12:01:07.275Z,0.00
2023-05-14T12:02:15.910Z,0.00
2023-05-14T12:03:26.998Z,0.00
2023-05-14T12:04:34.028Z,0.00
2023-05-14T12:05:41.417Z,0.00
2023-05-14T12:06:48.795Z,0.00
2023-05-14T12:07:57.687Z,0.00
2023-05-14T12:09:06.612Z,0.00
2023-05-14T12:10:14.467Z,0.00
2023-05-14T12:11:23.150Z,0.00
2023-05-14T12:12:35.565Z,0.00
2023-05-14T12:13:43.167Z,0.00
2023-05-14T12:14:51.569Z,0.00
2023-05-14T12:16:03.582Z,0.00
2023-05-14T12:17:16.807Z,0.00
2023-05-14T12:18:25.216Z,0.00
2023-05-14T12:19:32.441Z,0.00
2023-05-14T12:20:38.837Z,0.00
2023-05-14T12:21:46.227Z,0.00
2023-05-14T12:22:54.444Z,0.00
2023-05-14T12:24:05.804Z,0.00
2023-05-14T12:25:15.005Z,0.00
2023-05-14T12:26:22.721Z,0.00
2023-05-14T12:27:30.851Z,0.00
2023-05-14T12:28:40.841Z,0.00
2023-05-14T12:29:48.362Z,0.00
2023-05-14T12:30:59.430Z,0.00
2023-05-14T12:32:11.395Z,0.00
2023-05-14T12:33:19.580Z,0.00
2023-05-14T12:34:27.068Z,0.00
2023-05-14T12:35:34.507Z,0.00
2023-05-14T12:36:41.389Z,0.00
2023-05-14T12:37:48.511Z,0.00
2023-05-14T12:39:07.279Z,0.00
2023-05-14T12:40:15.588Z,0.00
2023-05-14T12:41:22.999Z,0.00
2023-05-14T12:42:30.558Z,0.00
2023-05-14T12:43:38.576Z,0.00
2023-05-14T12:44:46.054Z,0.00
2023-05-14T12:45:53.824Z,0.00
2023-05-14T12:47:00.645Z,0.00
2023-05-14T12:48:09.892Z,0.00
2023-05-14T12:49:17.329Z,0.00
2023-05-14T12:50:25.070Z,0.00
2023-05-14T12:51:32.368Z,0.00
2023-05-14T12:52:40.187Z,0.00
2023-05-14T12:53:48.051Z,0.00
2023-05-14T12:54:56.115Z,0.00
2023-05-14T12:56:04.747Z,0.00
2023-05-14T12:57:12.427Z,0.00
2023-05-14T12:58:20.681Z,0.00
2023-05-14T12:59:27.331Z,0.00
2023-05-14T13:00:34.376Z,0.00
2023-05-14T13:01:42.973Z,0.00
2023-05-14T13:02:51.025Z,0.00
2023-05-14T13:03:59.731Z,0.00
2023-05-14T13:05:08.322Z,0.00
2023-05-14T13:06:15.464Z,0.00
2023-05-14T13:07:23.211Z,0.00
2023-05-14T13:08:29.625Z,0.00
2023-05-14T13:09:36.420Z,0.00
2023-05-14T13:10:43.374Z,0.00
2023-05-14T13:11:50.083Z,0.00
2023-05-14T13:12:57.934Z,0.00
2023-05-14T13:14:05.402Z,0.00
2023-05-14T13:15:13.296Z,0.00
2023-05-14T13:16:21.158Z,0.00
2023-05-14T13:17:28.927Z,0.00
2023-05-14T13:18:35.956Z,0.00
2023-05-14T13:19:44.604Z,0.00
2023-05-14T13:20:51.825Z,0.00
2023-05-14T13:21:59.697Z,0.00
2023-05-14T13:23:07.484Z,0.00
2023-05-14T13:24:15.052Z,0.00
2023-05-14T13:25:22.017Z,0.00
2023-05-14T13:26:29.436Z,0.00
2023-05-14T13:27:38.480Z,0.00
2023-05-14T13:28:45.991Z,0.00
2023-05-14T13:29:57.370Z,0.00
2023-05-14T13:31:09.448Z,0.00
2023-05-14T13:32:17.310Z,0.00
2023-05-14T13:33:25.049Z,0.00
2023-05-14T13:34:31.922Z,0.00
2023-05-14T13:35:40.399Z,0.00
2023-05-14T13:36:48.679Z,0.00
2023-05-14T13:37:55.832Z,0.00
2023-05-14T13:39:03.424Z,0.00
2023-05-14T13:40:11.656Z,0.00
2023-05-14T13:41:19.604Z,0.00
2023-05-14T13:42:27.742Z,0.00
2023-05-14T13:43:35.781Z,0.00
2023-05-14T13:44:43.772Z,0.00
2023-05-14T13:45:52.629Z,0.00
2023-05-14T13:47:00.403Z,0.00
2023-05-14T13:48:07.563Z,0.00
2023-05-14T13:49:15.133Z,0.00
2023-05-14T13:50:23.920Z,0.00
2023-05-14T13:51:36.803Z,0.00
2023-05-14T13:52:44.077Z,0.00
2023-05-14T13:53:51.159Z,0.00
2023-05-14T13:54:58.902Z,0.00
2023-05-14T13:56:08.743Z,0.00
2023-05-14T13:57:17.043Z,0.00
2023-05-14T13:58:26.836Z,0.00
2023-05-14T13:59:33.882Z,0.00
2023-05-14T14:00:42.337Z,0.00
2023-05-14T14:01:51.273Z,0.00
2023-05-14T14:03:00.589Z,0.00
2023-05-14T14:04:09.389Z,0.00
2023-05-14T14:05:16.952Z,0.00
2023-05-14T14:06:25.048Z,0.00
2023-05-14T14:07:32.255Z,0.00
2023-05-14T14:08:40.021Z,0.00
2023-05-14T14:09:47.040Z,0.00
2023-05-14T14:10:56.776Z,0.00
2023-05-14T14:12:07.578Z,0.00
2023-05-14T14:13:15.724Z,0.00
2023-05-14T14:14:24.843Z,0.00
2023-05-14T14:15:31.685Z,0.00
2023-05-14T14:16:39.949Z,0.00
2023-05-14T14:17:48.235Z,0.00
2023-05-14T14:18:55.813Z,0.00
2023-05-14T14:20:02.986Z,0.00
2023-05-14T14:21:11.143Z,0.00
2023-05-14T14:22:20.019Z,0.00
2023-05-14T14:23:27.567Z,0.00
2023-05-14T14:24:34.439Z,0.00
2023-05-14T14:25:42.520Z,0.00
2023-05-14T14:26:50.126Z,0.00
2023-05-14T14:27:58.534Z,0.00
2023-05-14T14:29:06.429Z,0.00
2023-05-14T14:30:18.637Z,0.00
2023-05-14T14:31:25.414Z,0.00
2023-05-14T14:32:32.705Z,0.00
2023-05-14T14:33:39.329Z,0.00
2023-05-14T14:34:46.206Z,0.00
2023-05-14T14:35:53.147Z,0.00
2023-05-14T14:36:59.939Z,0.00
2023-05-14T14:38:07.688Z,0.00
2023-05-14T14:39:14.936Z,0.00
2023-05-14T14:40:24.752Z,0.00
2023-05-14T14:41:31.976Z,0.00
2023-05-14T14:42:39.679Z,0.00
2023-05-14T14:43:47.697Z,0.00
2023-05-14T14:44:54.479Z,0.00
2023-05-14T14:46:03.758Z,0.00
2023-05-14T14:47:11.294Z,0.00
2023-05-14T14:48:39.327Z,0.00
2023-05-14T14:49:46.794Z,0.00
2023-05-14T14:50:54.126Z,0.00
2023-05-14T14:52:01.817Z,0.00
2023-05-14T14:53:09.975Z,0.00
2023-05-14T14:54:18.468Z,0.00
2023-05-14T14:55:25.659Z,0.00
2023-05-14T14:56:34.696Z,0.00
2023-05-14T14:57:42.861Z,0.00
2023-05-14T14:58:50.218Z,0.00
2023-05-14T14:59:59.120Z,0.00
2023-05-14T15:01:07.852Z,0.00
2023-05-14T15:02:15.313Z,0.00
2023-05-14T15:03:23.726Z,0.00
2023-05-14T15:04:34.580Z,0.00
2023-05-14T15:05:41.400Z,0.00
2023-05-14T15:06:50.384Z,0.00
2023-05-14T15:07:58.323Z,0.00
2023-05-14T15:09:05.097Z,0.00
2023-05-14T15:10:12.405Z,0.00
2023-05-14T15:11:20.463Z,0.00
2023-05-14T15:12:28.037Z,0.00
2023-05-14T15:13:35.328Z,0.00